createdAt,value
2018-10-11T00:01:58.352Z,10.87
2018-10-11T00:04:27.395Z,9.83
2018-10-11T00:06:55.980Z,10.53
2018-10-11T00:09:24.513Z,10.60
2018-10-11T00:11:53.090Z,10.73
2018-10-11T00:14:21.623Z,14.77
2018-10-11T00:16:50.136Z,11.97
2018-10-11T00:19:18.668Z,12.13
2018-10-11T00:21:48.110Z,11.37
2018-10-11T00:24:16.741Z,11.77
2018-10-11T00:26:45.318Z,10.77
2018-10-11T00:29:14.800Z,11.07
2018-10-11T00:31:43.381Z,12.10
2018-10-11T00:34:11.916Z,9.43
2018-10-11T00:36:40.556Z,10.63
2018-10-11T00:39:09.225Z,11.53
2018-10-11T00:41:37.808Z,11.13
2018-10-11T00:44:06.483Z,10.77
2018-10-11T00:46:35.113Z,11.23
2018-10-11T00:49:03.756Z,9.20
2018-10-11T00:51:32.298Z,8.53
2018-10-11T00:54:00.950Z,11.37
2018-10-11T00:56:29.500Z,10.63
2018-10-11T00:59:00.175Z,9.93
2018-10-11T01:01:30.083Z,11.13
2018-10-11T01:03:58.625Z,9.23
2018-10-11T01:06:27.248Z,10.00
2018-10-11T01:08:55.788Z,9.67
2018-10-11T01:11:24.342Z,10.27
2018-10-11T01:13:52.928Z,11.57
2018-10-11T01:16:21.460Z,11.73
2018-10-11T01:18:49.987Z,10.20
2018-10-11T01:21:18.585Z,9.80
2018-10-11T01:23:47.187Z,9.70
2018-10-11T01:26:15.755Z,10.50
2018-10-11T01:28:49.815Z,8.77
2018-10-11T01:31:21.535Z,9.50
2018-10-11T01:33:51.769Z,8.93
2018-10-11T01:36:20.526Z,10.97
2018-10-11T01:38:51.222Z,11.63
2018-10-11T01:41:20.098Z,10.70
2018-10-11T01:43:48.683Z,9.43
2018-10-11T01:46:17.274Z,9.17
2018-10-11T01:48:45.873Z,11.27
2018-10-11T01:51:14.488Z,10.33
2018-10-11T01:53:43.080Z,11.43
2018-10-11T01:56:11.619Z,9.73
2018-10-11T01:58:40.298Z,11.17
2018-10-11T02:01:08.820Z,11.43
2018-10-11T02:03:37.368Z,10.30
2018-10-11T02:06:06.006Z,11.50
2018-10-11T02:08:34.604Z,11.33
2018-10-11T02:11:03.208Z,10.90
2018-10-11T02:13:31.743Z,9.60
2018-10-11T02:16:00.303Z,9.10
2018-10-11T02:18:28.847Z,14.37
2018-10-11T02:20:57.411Z,10.53
2018-10-11T02:23:25.998Z,9.43
2018-10-11T02:25:54.575Z,9.37
2018-10-11T02:28:23.128Z,8.87
2018-10-11T02:30:51.650Z,9.90
2018-10-11T02:33:20.190Z,8.80
2018-10-11T02:35:48.748Z,9.23
2018-10-11T02:38:17.290Z,14.97
2018-10-11T02:40:45.846Z,10.50
2018-10-11T02:43:14.441Z,9.07
2018-10-11T02:45:42.958Z,13.37
2018-10-11T02:48:11.494Z,8.67
2018-10-11T02:50:40.058Z,11.07
2018-10-11T02:53:08.608Z,10.57
2018-10-11T02:55:39.754Z,10.03
2018-10-11T02:58:25.068Z,10.93
2018-10-11T03:00:54.437Z,9.47
2018-10-11T03:03:26.308Z,10.33
2018-10-11T03:05:55.746Z,12.13
2018-10-11T03:08:25.958Z,12.53
2018-10-11T03:10:54.898Z,11.87
2018-10-11T03:13:23.787Z,10.87
2018-10-11T03:15:52.341Z,10.53
2018-10-11T03:18:20.936Z,11.37
2018-10-11T03:20:49.529Z,12.83
2018-10-11T03:23:18.293Z,10.83
2018-10-11T03:25:46.844Z,9.57
2018-10-11T03:28:16.523Z,9.70
2018-10-11T03:30:45.049Z,11.20
2018-10-11T03:33:14.329Z,9.83
2018-10-11T03:35:43.844Z,10.80
2018-10-11T03:38:12.701Z,15.40
2018-10-11T03:40:41.391Z,10.20
2018-10-11T03:43:09.926Z,9.67
2018-10-11T03:45:38.501Z,10.93
2018-10-11T03:48:07.951Z,11.03
2018-10-11T03:50:36.855Z,10.07
2018-10-11T03:53:05.479Z,10.57
2018-10-11T03:55:34.915Z,10.33
2018-10-11T03:58:03.769Z,11.37
2018-10-11T04:00:32.556Z,10.10
2018-10-11T04:03:01.138Z,12.00
2018-10-11T04:05:29.786Z,9.47
2018-10-11T04:07:58.356Z,11.07
2018-10-11T04:10:26.919Z,11.03
2018-10-11T04:12:55.473Z,11.20
2018-10-11T04:15:24.016Z,12.13
2018-10-11T04:17:53.731Z,13.27
2018-10-11T04:20:22.398Z,12.50
2018-10-11T04:22:50.939Z,11.93
2018-10-11T04:25:19.488Z,13.20
2018-10-11T04:27:48.046Z,12.33
2018-10-11T04:30:16.593Z,11.40
2018-10-11T04:32:45.146Z,11.47
2018-10-11T04:35:13.703Z,11.57
2018-10-11T04:37:42.256Z,13.70
2018-10-11T04:40:10.806Z,10.83
2018-10-11T04:42:44.993Z,14.33
2018-10-11T04:45:13.535Z,12.00
2018-10-11T04:47:42.096Z,13.43
2018-10-11T04:50:10.655Z,10.23
2018-10-11T04:52:39.223Z,12.07
2018-10-11T04:55:07.805Z,14.33
2018-10-11T04:57:36.388Z,11.20
2018-10-11T05:00:05.121Z,14.30
2018-10-11T05:02:33.712Z,12.93
2018-10-11T05:05:02.366Z,12.57
2018-10-11T05:07:30.991Z,12.47
2018-10-11T05:09:59.639Z,11.87
2018-10-11T05:12:28.340Z,14.93
2018-10-11T05:14:57.390Z,9.43
2018-10-11T05:17:26.276Z,13.70
2018-10-11T05:19:54.802Z,10.90
2018-10-11T05:22:23.377Z,11.60
2018-10-11T05:24:53.260Z,11.67
2018-10-11T05:27:27.573Z,12.13
2018-10-11T05:29:56.260Z,13.20
2018-10-11T05:32:25.026Z,13.17
2018-10-11T05:34:53.720Z,13.20
2018-10-11T05:37:22.326Z,13.43
2018-10-11T05:39:50.913Z,16.67
2018-10-11T05:42:19.832Z,17.03
2018-10-11T05:44:48.733Z,14.10
2018-10-11T05:47:17.485Z,14.03
2018-10-11T05:49:46.248Z,15.30
2018-10-11T05:52:15.058Z,13.43
2018-10-11T05:54:44.473Z,12.23
2018-10-11T05:57:13.130Z,13.33
2018-10-11T05:59:41.821Z,15.43
2018-10-11T06:02:10.635Z,12.53
2018-10-11T06:04:39.232Z,11.33
2018-10-11T06:07:07.980Z,12.90
2018-10-11T06:09:36.643Z,13.23
2018-10-11T06:12:05.436Z,15.63
2018-10-11T06:14:34.125Z,11.03
2018-10-11T06:17:02.990Z,12.20
2018-10-11T06:19:31.722Z,14.30
2018-10-11T06:22:00.421Z,13.97
2018-10-11T06:24:29.027Z,14.13
2018-10-11T06:26:57.790Z,12.03
2018-10-11T06:29:26.508Z,12.93
2018-10-11T06:31:55.294Z,10.63
2018-10-11T06:34:24.103Z,14.67
2018-10-11T06:36:52.848Z,13.80
2018-10-11T06:39:21.581Z,14.37
2018-10-11T06:41:50.187Z,14.83
2018-10-11T06:44:18.951Z,12.23
2018-10-11T06:46:48.523Z,14.80
2018-10-11T06:49:17.288Z,11.87
2018-10-11T06:51:46.090Z,12.93
2018-10-11T06:54:14.756Z,14.47
2018-10-11T06:56:43.303Z,12.20
2018-10-11T06:59:11.893Z,12.57
2018-10-11T07:01:40.489Z,12.53
2018-10-11T07:04:09.079Z,13.20
2018-10-11T07:06:37.766Z,14.10
2018-10-11T07:09:08.745Z,16.03
2018-10-11T07:11:37.296Z,12.67
2018-10-11T07:14:05.868Z,12.13
2018-10-11T07:16:34.476Z,17.07
2018-10-11T07:19:03.068Z,12.80
2018-10-11T07:21:31.658Z,13.10
2018-10-11T07:24:05.814Z,12.90
2018-10-11T07:26:40.198Z,14.00
2018-10-11T07:29:09.168Z,13.87
2018-10-11T07:31:37.734Z,13.13
2018-10-11T07:34:06.313Z,13.37
2018-10-11T07:36:34.863Z,19.43
2018-10-11T07:39:05.508Z,18.00
2018-10-11T07:41:34.076Z,14.30
2018-10-11T07:44:02.614Z,11.70
2018-10-11T07:46:31.213Z,15.30
2018-10-11T07:48:59.791Z,15.40
2018-10-11T07:51:28.362Z,13.13
2018-10-11T07:54:01.184Z,12.57
2018-10-11T07:56:31.216Z,15.40
2018-10-11T07:59:00.221Z,16.73
2018-10-11T08:01:29.721Z,15.30
2018-10-11T08:04:01.054Z,17.33
2018-10-11T08:06:29.591Z,13.97
2018-10-11T08:08:58.240Z,14.43
2018-10-11T08:14:29.756Z,13.63
2018-10-11T08:16:58.550Z,13.73
2018-10-11T08:19:39.678Z,17.57
2018-10-11T08:22:26.309Z,14.67
2018-10-11T08:24:56.272Z,14.00
2018-10-11T08:27:24.902Z,17.93
2018-10-11T08:29:53.519Z,14.70
2018-10-11T08:32:23.418Z,16.57
2018-10-11T08:34:52.026Z,14.47
2018-10-11T08:37:20.575Z,15.53
2018-10-11T08:39:49.138Z,14.87
2018-10-11T08:42:17.691Z,16.47
2018-10-11T08:44:46.258Z,16.27
2018-10-11T08:47:14.884Z,14.43
2018-10-11T08:49:43.452Z,15.50
2018-10-11T08:52:12.071Z,15.23
2018-10-11T08:54:48.611Z,15.17
2018-10-11T08:57:18.170Z,16.83
2018-10-11T08:59:46.879Z,16.63
2018-10-11T09:02:15.479Z,14.30
2018-10-11T09:04:44.450Z,16.90
2018-10-11T09:07:13.076Z,17.13
2018-10-11T09:09:42.131Z,18.87
2018-10-11T09:12:10.689Z,21.47
2018-10-11T09:14:39.279Z,16.13
2018-10-11T09:17:07.935Z,20.07
2018-10-11T09:19:36.641Z,17.97
2018-10-11T09:22:05.282Z,18.77
2018-10-11T09:24:33.886Z,16.50
2018-10-11T09:27:02.490Z,16.80
2018-10-11T09:29:31.151Z,17.70
2018-10-11T09:31:59.784Z,17.37
2018-10-11T09:34:28.454Z,18.40
2018-10-11T09:36:57.012Z,19.43
2018-10-11T09:39:25.614Z,17.80
2018-10-11T09:41:55.544Z,15.93
2018-10-11T09:44:29.904Z,17.07
2018-10-11T09:46:58.536Z,20.30
2018-10-11T09:49:27.207Z,17.90
2018-10-11T09:51:55.839Z,15.23
2018-10-11T09:54:24.475Z,19.93
2018-10-11T09:57:26.006Z,17.80
2018-10-11T09:59:54.938Z,18.87
2018-10-11T10:02:24.350Z,17.83
2018-10-11T10:04:54.463Z,18.37
2018-10-11T10:07:23.056Z,17.93
2018-10-11T10:09:51.690Z,15.43
2018-10-11T10:12:20.624Z,15.63
2018-10-11T10:14:54.836Z,14.93
2018-10-11T10:17:23.450Z,16.87
2018-10-11T10:19:52.071Z,13.62
2018-10-11T10:22:20.668Z,13.63
2018-10-11T10:24:49.292Z,12.73
2018-10-11T10:27:18.058Z,14.10
2018-10-11T10:29:47.116Z,11.43
2018-10-11T10:32:15.755Z,11.63
2018-10-11T10:34:44.333Z,10.40
2018-10-11T10:37:12.936Z,10.93
2018-10-11T10:39:41.601Z,11.48
2018-10-11T10:42:10.188Z,10.98
2018-10-11T10:44:38.753Z,11.10
2018-10-11T10:47:07.598Z,11.70
2018-10-11T10:49:36.151Z,10.78
2018-10-11T10:52:04.849Z,11.68
2018-10-11T10:54:34.548Z,11.83
2018-10-11T10:57:03.821Z,9.83
2018-10-11T10:59:32.470Z,12.60
2018-10-11T11:02:01.086Z,10.58
2018-10-11T11:04:30.338Z,9.20
2018-10-11T11:06:58.993Z,10.58
2018-10-11T11:09:27.635Z,10.63
2018-10-11T11:11:56.256Z,12.00
2018-10-11T11:14:24.821Z,9.38
2018-10-11T11:16:53.424Z,10.00
2018-10-11T11:19:22.135Z,9.63
2018-10-11T11:21:50.829Z,9.55
2018-10-11T11:24:19.404Z,10.78
2018-10-11T11:26:47.976Z,9.50
2018-10-11T11:29:16.513Z,10.28
2018-10-11T11:31:45.111Z,8.78
2018-10-11T11:34:13.786Z,9.60
2018-10-11T11:36:42.367Z,13.38
2018-10-11T11:39:10.923Z,10.13
2018-10-11T11:41:39.497Z,9.28
2018-10-11T11:44:08.131Z,11.22
2018-10-11T11:46:36.721Z,15.85
2018-10-11T11:49:05.379Z,14.58
2018-10-11T11:51:33.928Z,11.68
2018-10-11T11:54:02.640Z,12.55
2018-10-11T11:56:31.224Z,10.88
2018-10-11T11:58:59.859Z,10.88
2018-10-11T12:01:33.915Z,14.90
2018-10-11T12:04:02.618Z,13.23
2018-10-11T12:06:31.191Z,13.40
2018-10-11T12:08:59.756Z,13.07
2018-10-11T12:11:28.369Z,13.57
2018-10-11T12:13:56.962Z,13.73
2018-10-11T12:16:25.926Z,12.60
2018-10-11T12:18:55.547Z,15.13
2018-10-11T12:21:24.180Z,13.87
2018-10-11T12:23:52.927Z,14.73
2018-10-11T12:26:21.641Z,12.43
2018-10-11T12:28:50.579Z,13.47
2018-10-11T12:31:19.184Z,13.70
2018-10-11T12:33:48.284Z,16.97
2018-10-11T12:36:16.870Z,15.07
2018-10-11T12:38:46.148Z,15.07
2018-10-11T12:41:14.642Z,15.20
2018-10-11T12:43:43.341Z,15.20
2018-10-11T12:46:11.931Z,16.10
2018-10-11T12:48:41.127Z,16.23
2018-10-11T12:51:09.801Z,19.30
2018-10-11T12:53:42.248Z,14.63
2018-10-11T12:56:07.844Z,15.37
2018-10-11T12:58:36.544Z,15.83
2018-10-11T13:01:05.191Z,14.30
2018-10-11T13:03:33.835Z,13.57
2018-10-11T13:06:03.188Z,15.03
2018-10-11T13:08:37.521Z,16.40
2018-10-11T13:11:06.250Z,20.37
2018-10-11T13:13:34.927Z,13.60
2018-10-11T13:16:05.037Z,13.93
2018-10-11T13:18:32.277Z,17.13
2018-10-11T13:21:01.447Z,17.50
2018-10-11T13:23:30.121Z,16.00
2018-10-11T13:25:58.827Z,15.63
2018-10-11T13:28:27.419Z,15.30
2018-10-11T13:30:56.032Z,13.57
2018-10-11T13:33:24.613Z,15.53
2018-10-11T13:35:53.204Z,12.80
2018-10-11T13:38:21.819Z,16.23
2018-10-11T13:40:50.886Z,14.73
2018-10-11T13:43:19.698Z,13.67
2018-10-11T13:45:52.471Z,14.27
2018-10-11T13:48:16.963Z,12.20
2018-10-11T13:50:45.618Z,12.60
2018-10-11T13:53:17.020Z,13.03
2018-10-11T13:55:53.618Z,14.00
2018-10-11T13:58:16.819Z,15.17
2018-10-11T14:00:45.364Z,13.27
2018-10-11T14:03:13.908Z,13.63
2018-10-11T14:05:42.584Z,13.17
2018-10-11T14:08:16.726Z,14.77
2018-10-11T14:10:45.363Z,15.87
2018-10-11T14:13:15.774Z,14.43
2018-10-11T14:15:42.626Z,16.33
2018-10-11T14:18:12.729Z,13.57
2018-10-11T14:20:40.148Z,14.93
2018-10-11T14:23:08.748Z,16.70
2018-10-11T14:25:37.303Z,14.20
2018-10-11T14:28:06.052Z,16.30
2018-10-11T14:30:34.624Z,16.23
2018-10-11T14:33:03.238Z,14.00
2018-10-11T14:35:31.849Z,15.07
2018-10-11T14:38:00.434Z,16.20
2018-10-11T14:40:29.051Z,15.33
2018-10-11T14:42:57.606Z,15.27
2018-10-11T14:45:26.161Z,15.07
2018-10-11T14:47:54.751Z,14.47
2018-10-11T14:50:23.376Z,14.63
2018-10-11T14:52:51.986Z,15.60
2018-10-11T14:55:20.573Z,13.70
2018-10-11T14:57:49.166Z,15.17
2018-10-11T15:00:17.788Z,14.80
2018-10-11T15:02:46.434Z,13.93
2018-10-11T15:05:15.044Z,13.97
2018-10-11T15:07:43.759Z,13.63
2018-10-11T15:10:12.422Z,13.70
2018-10-11T15:12:40.978Z,15.47
2018-10-11T15:15:09.555Z,13.57
2018-10-11T15:17:38.125Z,14.53
2018-10-11T15:20:06.933Z,13.37
2018-10-11T15:22:35.550Z,12.83
2018-10-11T15:25:05.636Z,16.43
2018-10-11T15:27:34.702Z,16.17
2018-10-11T15:30:03.574Z,18.30
2018-10-11T15:56:27.760Z,25.77
2018-10-11T15:59:01.816Z,23.97
2018-10-11T16:01:30.482Z,30.17
2018-10-11T16:03:59.253Z,17.27
2018-10-11T16:06:28.177Z,17.00
2018-10-11T16:08:56.819Z,16.93
2018-10-11T16:11:25.584Z,19.57
2018-10-11T16:13:54.853Z,17.00
2018-10-11T16:16:23.420Z,18.07
2018-10-11T16:18:52.223Z,20.27
2018-10-11T16:21:26.350Z,16.20
2018-10-11T16:23:55.143Z,17.13
2018-10-11T16:26:23.861Z,18.00
2018-10-11T16:28:52.487Z,22.30
2018-10-11T16:31:21.931Z,19.83
2018-10-11T16:33:50.583Z,17.47
2018-10-11T16:36:19.255Z,24.57
2018-10-11T16:38:48.033Z,33.53
2018-10-11T16:41:16.603Z,24.17
2018-10-11T16:43:45.233Z,17.70
2018-10-11T16:46:13.891Z,19.20
2018-10-11T16:48:42.461Z,39.93
2018-10-11T16:51:11.429Z,26.33
2018-10-11T16:53:40.028Z,26.30
2018-10-11T16:56:08.661Z,27.13
2018-10-11T16:58:37.286Z,20.67
2018-10-11T17:01:06.136Z,20.70
2018-10-11T17:03:35.149Z,21.43
2018-10-11T17:06:03.915Z,23.70
2018-10-11T17:08:32.498Z,25.07
2018-10-11T17:11:01.221Z,23.67
2018-10-11T17:13:29.849Z,22.00
2018-10-11T17:15:58.465Z,23.90
2018-10-11T17:18:27.047Z,26.13
2018-10-11T17:20:55.723Z,24.97
2018-10-11T17:23:24.544Z,27.30
2018-10-11T17:25:53.267Z,26.20
2018-10-11T17:28:22.016Z,24.57
2018-10-11T17:30:50.698Z,25.83
2018-10-11T17:33:19.443Z,24.37
2018-10-11T17:35:48.079Z,24.43
2018-10-11T17:38:16.691Z,23.37
2018-10-11T17:40:45.283Z,22.43
2018-10-11T17:43:13.944Z,26.47
2018-10-11T17:45:42.528Z,26.40
2018-10-11T17:48:11.131Z,28.67
2018-10-11T17:50:39.779Z,29.83
2018-10-11T17:53:08.427Z,29.90
2018-10-11T17:55:36.968Z,27.23
2018-10-11T17:58:11.109Z,27.80
2018-10-11T18:00:39.811Z,24.97
2018-10-11T18:03:08.471Z,26.53
2018-10-11T18:05:42.771Z,25.67
2018-10-11T18:08:22.538Z,58.10
2018-10-11T18:10:51.191Z,28.33
2018-10-11T18:13:19.868Z,26.83
2018-10-11T18:15:48.581Z,20.63
2018-10-11T18:18:17.173Z,17.27
2018-10-11T18:20:46.364Z,13.90
2018-10-11T18:23:14.944Z,17.07
2018-10-11T18:25:43.636Z,14.93
2018-10-11T18:28:12.286Z,17.27
2018-10-11T18:30:40.881Z,14.93
2018-10-11T18:33:10.416Z,15.70
2018-10-11T18:35:39.522Z,15.67
2018-10-11T18:38:08.116Z,16.10
2018-10-11T18:40:38.175Z,16.83
2018-10-11T18:43:06.859Z,17.83
2018-10-11T18:45:35.537Z,21.30
2018-10-11T18:48:04.289Z,18.57
2018-10-11T18:50:38.456Z,18.53
2018-10-11T18:53:12.512Z,19.63
2018-10-11T18:55:46.769Z,19.57
2018-10-11T18:58:15.408Z,21.80
2018-10-11T19:00:44.059Z,21.17
2018-10-11T19:03:14.082Z,20.87
2018-10-11T19:05:42.813Z,21.97
2018-10-11T19:08:16.924Z,21.77
2018-10-11T19:10:51.064Z,19.83
2018-10-11T19:13:20.320Z,22.03
2018-10-11T19:15:50.057Z,19.27
2018-10-11T19:18:18.716Z,21.50
2018-10-11T19:20:48.435Z,22.40
2018-10-11T19:23:17.029Z,21.47
2018-10-11T19:25:45.726Z,22.87
2018-10-11T19:28:14.586Z,25.87
2018-10-11T19:30:45.217Z,23.30
2018-10-11T19:33:14.557Z,24.70
2018-10-11T19:35:44.090Z,21.70
2018-10-11T19:38:12.846Z,22.20
2018-10-11T19:40:47.218Z,21.20
2018-10-11T19:43:21.446Z,24.67
2018-10-11T19:45:50.314Z,20.43
2018-10-11T19:48:20.005Z,19.00
2018-10-11T19:50:48.614Z,23.30
2018-10-11T19:53:22.946Z,22.33
2018-10-11T19:55:51.962Z,20.77
2018-10-11T19:58:20.552Z,20.40
2018-10-11T20:00:49.784Z,26.90
2018-10-11T20:03:18.630Z,26.87
2018-10-11T20:05:47.244Z,23.37
2018-10-11T20:11:26.452Z,24.00
2018-10-11T20:13:55.219Z,27.63
2018-10-11T20:16:30.499Z,26.37
2018-10-11T20:19:08.093Z,25.43
2018-10-11T20:21:44.041Z,32.27
2018-10-11T20:24:12.961Z,32.73
2018-10-11T20:26:49.232Z,33.63
2018-10-11T20:29:23.026Z,30.83
2018-10-11T20:31:56.517Z,30.37
2018-10-11T20:34:25.709Z,32.63
2018-10-11T20:36:54.972Z,31.50
2018-10-11T20:39:24.135Z,33.67
2018-10-11T20:41:53.364Z,30.87
2018-10-11T20:44:27.984Z,24.97
2018-10-11T20:46:57.437Z,34.30
2018-10-11T20:49:27.507Z,32.17
2018-10-11T20:51:56.696Z,31.33
2018-10-11T20:54:31.230Z,36.87
2018-10-11T20:57:00.551Z,37.17
2018-10-11T20:59:53.989Z,42.13
2018-10-11T21:02:22.578Z,39.57
2018-10-11T21:04:51.211Z,34.00
2018-10-11T21:07:20.499Z,32.63
2018-10-11T21:09:49.093Z,34.63
2018-10-11T21:12:17.696Z,33.97
2018-10-11T21:14:46.331Z,34.17
2018-10-11T21:17:15.077Z,38.07
2018-10-11T21:19:44.318Z,36.10
2018-10-11T21:22:13.954Z,34.70
2018-10-11T21:24:42.579Z,33.53
2018-10-11T21:27:11.224Z,33.40
2018-10-11T21:29:39.984Z,37.17
2018-10-11T21:32:09.197Z,35.17
2018-10-11T21:34:37.828Z,32.80
2018-10-11T21:37:06.596Z,32.27
2018-10-11T21:39:35.164Z,37.60
2018-10-11T21:42:03.739Z,26.57
2018-10-11T21:44:32.339Z,27.20
2018-10-11T21:47:02.817Z,30.70
2018-10-11T21:49:31.834Z,32.07
2018-10-11T21:52:00.489Z,27.83
2018-10-11T21:54:29.096Z,28.60
2018-10-11T21:56:58.316Z,32.77
2018-10-11T21:59:26.951Z,34.00
2018-10-11T22:01:55.538Z,27.93
2018-10-11T22:04:24.144Z,30.83
2018-10-11T22:06:53.624Z,33.57
2018-10-11T22:09:22.244Z,36.43
2018-10-11T22:11:50.848Z,32.20
2018-10-11T22:14:20.198Z,35.23
2018-10-11T22:16:49.119Z,33.00
2018-10-11T22:19:17.709Z,34.90
2018-10-11T22:21:46.612Z,41.03
2018-10-11T22:24:15.183Z,34.97
2018-10-11T22:26:44.542Z,28.47
2018-10-11T22:29:13.164Z,28.10
2018-10-11T22:31:41.813Z,33.70
2018-10-11T22:34:10.419Z,30.57
2018-10-11T22:36:39.004Z,26.53
2018-10-11T22:39:09.913Z,30.13
2018-10-11T22:41:39.726Z,30.00
2018-10-11T22:44:09.198Z,28.13
2018-10-11T22:46:38.138Z,27.50
2018-10-11T22:49:07.151Z,30.97
2018-10-11T22:51:35.786Z,31.90
2018-10-11T22:54:04.891Z,28.23
2018-10-11T22:56:33.523Z,25.93
2018-10-11T22:59:02.209Z,32.57
2018-10-11T23:01:30.789Z,28.90
2018-10-11T23:03:59.433Z,27.57
2018-10-11T23:06:28.095Z,24.47
2018-10-11T23:08:56.621Z,25.37
2018-10-11T23:11:25.221Z,21.70
2018-10-11T23:13:53.793Z,23.93
2018-10-11T23:16:22.314Z,22.70
2018-10-11T23:18:50.916Z,21.30
2018-10-11T23:21:19.473Z,22.17
2018-10-11T23:23:48.029Z,21.33
2018-10-11T23:26:16.616Z,24.70
2018-10-11T23:28:45.189Z,19.67
2018-10-11T23:31:14.831Z,21.30
2018-10-11T23:33:43.501Z,23.10
2018-10-11T23:36:12.029Z,22.57
2018-10-11T23:38:42.286Z,26.33
2018-10-11T23:41:10.983Z,22.03
2018-10-11T23:43:39.588Z,23.13
2018-10-11T23:46:08.166Z,22.97
2018-10-11T23:48:36.778Z,23.40
2018-10-11T23:51:05.453Z,25.73
2018-10-11T23:53:34.130Z,25.80
2018-10-11T23:56:02.688Z,24.07
2018-10-11T23:58:31.303Z,25.90
